sensor_id;sensor_type;location;lat;lon;timestamp;P1;durP1;ratioP1;P2;durP2;ratioP2
18887;SDS011;9576;47.792;9.628;2023-06-04T00:00:58;14.65;;;6.97;;
18887;SDS011;9576;47.792;9.628;2023-06-04T00:04:01;13.00;;;7.55;;
18887;SDS011;9576;47.792;9.628;2023-06-04T00:07:03;16.38;;;7.35;;
18887;SDS011;9576;47.792;9.628;2023-06-04T00:10:06;15.23;;;7.00;;
18887;SDS011;9576;47.792;9.628;2023-06-04T00:13:08;14.65;;;7.00;;
18887;SDS011;9576;47.792;9.628;2023-06-04T00:16:10;24.60;;;7.05;;
18887;SDS011;9576;47.792;9.628;2023-06-04T00:19:13;16.70;;;7.88;;
18887;SDS011;9576;47.792;9.628;2023-06-04T00:22:15;11.75;;;6.45;;
18887;SDS011;9576;47.792;9.628;2023-06-04T00:25:17;12.80;;;7.15;;
18887;SDS011;9576;47.792;9.628;2023-06-04T00:28:19;21.83;;;8.32;;
18887;SDS011;9576;47.792;9.628;2023-06-04T00:31:21;17.02;;;7.97;;
18887;SDS011;9576;47.792;9.628;2023-06-04T00:34:25;18.77;;;7.88;;
18887;SDS011;9576;47.792;9.628;2023-06-04T00:37:28;10.85;;;7.07;;
18887;SDS011;9576;47.792;9.628;2023-06-04T00:40:30;15.45;;;7.18;;
18887;SDS011;9576;47.792;9.628;2023-06-04T00:43:32;18.42;;;7.07;;
18887;SDS011;9576;47.792;9.628;2023-06-04T00:46:35;23.27;;;8.27;;
18887;SDS011;9576;47.792;9.628;2023-06-04T00:49:39;17.95;;;7.57;;
18887;SDS011;9576;47.792;9.628;2023-06-04T00:52:41;20.05;;;7.45;;
18887;SDS011;9576;47.792;9.628;2023-06-04T00:55:43;19.25;;;8.55;;
18887;SDS011;9576;47.792;9.628;2023-06-04T00:58:45;15.38;;;7.43;;
18887;SDS011;9576;47.792;9.628;2023-06-04T01:01:49;17.30;;;7.80;;
18887;SDS011;9576;47.792;9.628;2023-06-04T01:05:02;17.52;;;7.95;;
18887;SDS011;9576;47.792;9.628;2023-06-04T01:08:12;16.65;;;7.75;;
18887;SDS011;9576;47.792;9.628;2023-06-04T01:11:15;13.50;;;6.63;;
18887;SDS011;9576;47.792;9.628;2023-06-04T01:14:17;11.15;;;7.53;;
18887;SDS011;9576;47.792;9.628;2023-06-04T01:17:20;14.38;;;7.22;;
18887;SDS011;9576;47.792;9.628;2023-06-04T01:20:31;12.85;;;7.10;;
18887;SDS011;9576;47.792;9.628;2023-06-04T01:23:39;30.95;;;7.47;;
18887;SDS011;9576;47.792;9.628;2023-06-04T01:26:47;11.20;;;6.88;;
18887;SDS011;9576;47.792;9.628;2023-06-04T01:29:50;11.35;;;6.57;;
18887;SDS011;9576;47.792;9.628;2023-06-04T01:32:53;10.30;;;6.68;;
18887;SDS011;9576;47.792;9.628;2023-06-04T01:35:57;13.60;;;7.60;;
18887;SDS011;9576;47.792;9.628;2023-06-04T01:39:00;12.90;;;7.65;;
18887;SDS011;9576;47.792;9.628;2023-06-04T01:42:02;26.60;;;8.68;;
18887;SDS011;9576;47.792;9.628;2023-06-04T01:45:05;12.30;;;8.00;;
18887;SDS011;9576;47.792;9.628;2023-06-04T01:48:07;19.67;;;7.60;;
18887;SDS011;9576;47.792;9.628;2023-06-04T01:51:10;15.07;;;7.60;;
18887;SDS011;9576;47.792;9.628;2023-06-04T01:54:12;21.48;;;7.85;;
18887;SDS011;9576;47.792;9.628;2023-06-04T01:57:14;13.90;;;8.32;;
18887;SDS011;9576;47.792;9.628;2023-06-04T02:00:16;13.60;;;7.70;;
18887;SDS011;9576;47.792;9.628;2023-06-04T02:03:19;13.25;;;7.80;;
18887;SDS011;9576;47.792;9.628;2023-06-04T02:06:23;13.85;;;7.82;;
18887;SDS011;9576;47.792;9.628;2023-06-04T02:09:30;11.75;;;7.43;;
18887;SDS011;9576;47.792;9.628;2023-06-04T02:12:31;20.33;;;8.20;;
18887;SDS011;9576;47.792;9.628;2023-06-04T02:15:33;18.27;;;8.30;;
18887;SDS011;9576;47.792;9.628;2023-06-04T02:18:35;18.27;;;7.78;;
18887;SDS011;9576;47.792;9.628;2023-06-04T02:21:39;14.48;;;8.27;;
18887;SDS011;9576;47.792;9.628;2023-06-04T02:24:40;18.25;;;7.97;;
18887;SDS011;9576;47.792;9.628;2023-06-04T02:27:43;16.00;;;8.15;;
18887;SDS011;9576;47.792;9.628;2023-06-04T02:30:45;16.25;;;8.38;;
18887;SDS011;9576;47.792;9.628;2023-06-04T02:33:47;19.83;;;8.52;;
18887;SDS011;9576;47.792;9.628;2023-06-04T02:36:50;18.98;;;8.32;;
18887;SDS011;9576;47.792;9.628;2023-06-04T02:39:52;14.50;;;8.25;;
18887;SDS011;9576;47.792;9.628;2023-06-04T02:42:54;12.95;;;8.25;;
18887;SDS011;9576;47.792;9.628;2023-06-04T02:45:56;16.77;;;8.93;;
18887;SDS011;9576;47.792;9.628;2023-06-04T02:48:58;15.32;;;7.43;;
18887;SDS011;9576;47.792;9.628;2023-06-04T02:52:01;14.07;;;8.73;;
18887;SDS011;9576;47.792;9.628;2023-06-04T02:55:04;14.00;;;8.63;;
18887;SDS011;9576;47.792;9.628;2023-06-04T02:58:07;11.40;;;7.13;;
18887;SDS011;9576;47.792;9.628;2023-06-04T03:01:12;14.30;;;8.10;;
18887;SDS011;9576;47.792;9.628;2023-06-04T03:04:19;18.98;;;9.00;;
18887;SDS011;9576;47.792;9.628;2023-06-04T03:07:22;17.10;;;8.35;;
18887;SDS011;9576;47.792;9.628;2023-06-04T03:10:24;15.40;;;8.45;;
18887;SDS011;9576;47.792;9.628;2023-06-04T03:13:26;15.95;;;8.18;;
18887;SDS011;9576;47.792;9.628;2023-06-04T03:16:28;19.27;;;7.95;;
18887;SDS011;9576;47.792;9.628;2023-06-04T03:19:30;20.30;;;7.43;;
18887;SDS011;9576;47.792;9.628;2023-06-04T03:22:33;19.23;;;8.23;;
18887;SDS011;9576;47.792;9.628;2023-06-04T03:25:35;15.75;;;7.68;;
18887;SDS011;9576;47.792;9.628;2023-06-04T03:28:37;24.35;;;8.07;;
18887;SDS011;9576;47.792;9.628;2023-06-04T03:31:40;18.58;;;9.15;;
18887;SDS011;9576;47.792;9.628;2023-06-04T03:34:45;13.02;;;7.90;;
18887;SDS011;9576;47.792;9.628;2023-06-04T03:37:48;18.15;;;7.82;;
18887;SDS011;9576;47.792;9.628;2023-06-04T03:40:50;14.05;;;8.35;;
18887;SDS011;9576;47.792;9.628;2023-06-04T03:43:52;15.68;;;7.82;;
18887;SDS011;9576;47.792;9.628;2023-06-04T03:46:54;18.15;;;7.80;;
18887;SDS011;9576;47.792;9.628;2023-06-04T03:49:56;21.60;;;8.50;;
18887;SDS011;9576;47.792;9.628;2023-06-04T03:52:59;15.60;;;8.13;;
18887;SDS011;9576;47.792;9.628;2023-06-04T03:56:01;13.20;;;7.70;;
18887;SDS011;9576;47.792;9.628;2023-06-04T03:59:03;23.25;;;8.60;;
18887;SDS011;9576;47.792;9.628;2023-06-04T04:02:05;16.88;;;8.27;;
18887;SDS011;9576;47.792;9.628;2023-06-04T04:05:07;15.45;;;7.50;;
18887;SDS011;9576;47.792;9.628;2023-06-04T04:08:12;13.63;;;7.38;;
18887;SDS011;9576;47.792;9.628;2023-06-04T04:11:16;19.58;;;8.07;;
18887;SDS011;9576;47.792;9.628;2023-06-04T04:14:18;19.10;;;7.55;;
18887;SDS011;9576;47.792;9.628;2023-06-04T04:17:20;13.77;;;8.02;;
18887;SDS011;9576;47.792;9.628;2023-06-04T04:20:22;15.93;;;8.38;;
18887;SDS011;9576;47.792;9.628;2023-06-04T04:23:25;28.55;;;8.05;;
18887;SDS011;9576;47.792;9.628;2023-06-04T04:26:27;11.65;;;6.57;;
18887;SDS011;9576;47.792;9.628;2023-06-04T04:29:30;12.75;;;7.30;;
18887;SDS011;9576;47.792;9.628;2023-06-04T04:32:32;12.60;;;6.90;;
18887;SDS011;9576;47.792;9.628;2023-06-04T04:35:38;16.27;;;7.38;;
18887;SDS011;9576;47.792;9.628;2023-06-04T04:38:43;16.83;;;8.23;;
18887;SDS011;9576;47.792;9.628;2023-06-04T04:41:46;12.73;;;7.20;;
18887;SDS011;9576;47.792;9.628;2023-06-04T04:44:48;11.15;;;6.70;;
18887;SDS011;9576;47.792;9.628;2023-06-04T04:47:50;14.48;;;7.13;;
18887;SDS011;9576;47.792;9.628;2023-06-04T04:50:52;13.05;;;7.00;;
18887;SDS011;9576;47.792;9.628;2023-06-04T04:53:56;11.55;;;6.53;;
18887;SDS011;9576;47.792;9.628;2023-06-04T04:57:00;20.13;;;6.70;;
18887;SDS011;9576;47.792;9.628;2023-06-04T05:00:02;12.35;;;7.40;;
18887;SDS011;9576;47.792;9.628;2023-06-04T05:03:05;14.60;;;6.75;;
18887;SDS011;9576;47.792;9.628;2023-06-04T05:06:07;12.95;;;6.65;;
18887;SDS011;9576;47.792;9.628;2023-06-04T05:09:10;11.93;;;6.45;;
18887;SDS011;9576;47.792;9.628;2023-06-04T05:12:12;16.48;;;7.13;;
18887;SDS011;9576;47.792;9.628;2023-06-04T05:15:14;15.25;;;6.38;;
18887;SDS011;9576;47.792;9.628;2023-06-04T05:18:18;15.20;;;6.18;;
18887;SDS011;9576;47.792;9.628;2023-06-04T05:21:22;17.23;;;7.10;;
18887;SDS011;9576;47.792;9.628;2023-06-04T05:24:25;13.48;;;6.63;;
18887;SDS011;9576;47.792;9.628;2023-06-04T05:30:31;13.25;;;6.30;;
18887;SDS011;9576;47.792;9.628;2023-06-04T05:33:33;13.25;;;6.97;;
18887;SDS011;9576;47.792;9.628;2023-06-04T05:36:35;13.93;;;6.38;;
18887;SDS011;9576;47.792;9.628;2023-06-04T05:39:39;12.65;;;6.57;;
18887;SDS011;9576;47.792;9.628;2023-06-04T05:42:41;14.60;;;6.55;;
18887;SDS011;9576;47.792;9.628;2023-06-04T05:45:43;10.98;;;5.97;;
18887;SDS011;9576;47.792;9.628;2023-06-04T05:48:45;14.00;;;6.63;;
18887;SDS011;9576;47.792;9.628;2023-06-04T05:51:47;9.43;;;6.20;;
18887;SDS011;9576;47.792;9.628;2023-06-04T05:54:50;11.10;;;6.93;;
18887;SDS011;9576;47.792;9.628;2023-06-04T05:57:52;16.95;;;6.57;;
18887;SDS011;9576;47.792;9.628;2023-06-04T06:00:54;17.10;;;5.82;;
18887;SDS011;9576;47.792;9.628;2023-06-04T06:03:56;13.15;;;6.10;;
18887;SDS011;9576;47.792;9.628;2023-06-04T06:06:57;8.07;;;5.47;;
18887;SDS011;9576;47.792;9.628;2023-06-04T06:10:01;14.75;;;6.40;;
18887;SDS011;9576;47.792;9.628;2023-06-04T06:13:03;11.77;;;6.18;;
18887;SDS011;9576;47.792;9.628;2023-06-04T06:16:05;13.45;;;7.20;;
18887;SDS011;9576;47.792;9.628;2023-06-04T06:19:07;14.00;;;5.85;;
18887;SDS011;9576;47.792;9.628;2023-06-04T06:22:09;11.07;;;5.85;;
18887;SDS011;9576;47.792;9.628;2023-06-04T06:25:13;14.88;;;6.97;;
18887;SDS011;9576;47.792;9.628;2023-06-04T06:28:15;23.80;;;6.57;;
18887;SDS011;9576;47.792;9.628;2023-06-04T06:31:17;15.27;;;6.95;;
18887;SDS011;9576;47.792;9.628;2023-06-04T06:34:20;13.25;;;6.97;;
18887;SDS011;9576;47.792;9.628;2023-06-04T06:37:22;17.25;;;7.22;;
18887;SDS011;9576;47.792;9.628;2023-06-04T06:40:25;16.55;;;6.75;;
18887;SDS011;9576;47.792;9.628;2023-06-04T06:43:27;16.13;;;6.80;;
18887;SDS011;9576;47.792;9.628;2023-06-04T06:46:29;17.23;;;7.13;;
18887;SDS011;9576;47.792;9.628;2023-06-04T06:49:31;25.35;;;6.65;;
18887;SDS011;9576;47.792;9.628;2023-06-04T06:52:33;20.73;;;7.13;;
18887;SDS011;9576;47.792;9.628;2023-06-04T06:55:36;15.20;;;7.05;;
18887;SDS011;9576;47.792;9.628;2023-06-04T06:58:38;14.82;;;6.97;;
18887;SDS011;9576;47.792;9.628;2023-06-04T07:01:40;23.65;;;7.15;;
18887;SDS011;9576;47.792;9.628;2023-06-04T07:04:42;13.00;;;5.88;;
18887;SDS011;9576;47.792;9.628;2023-06-04T07:07:44;12.55;;;6.47;;
18887;SDS011;9576;47.792;9.628;2023-06-04T07:10:47;19.30;;;6.28;;
18887;SDS011;9576;47.792;9.628;2023-06-04T07:13:49;12.98;;;6.45;;
18887;SDS011;9576;47.792;9.628;2023-06-04T07:16:51;9.82;;;6.05;;
18887;SDS011;9576;47.792;9.628;2023-06-04T07:19:53;13.57;;;5.68;;
18887;SDS011;9576;47.792;9.628;2023-06-04T07:22:55;13.82;;;6.53;;
18887;SDS011;9576;47.792;9.628;2023-06-04T07:25:58;15.15;;;6.72;;
18887;SDS011;9576;47.792;9.628;2023-06-04T07:29:00;16.65;;;5.90;;
18887;SDS011;9576;47.792;9.628;2023-06-04T07:32:02;14.18;;;6.43;;
18887;SDS011;9576;47.792;9.628;2023-06-04T07:35:05;11.63;;;6.35;;
18887;SDS011;9576;47.792;9.628;2023-06-04T07:38:08;13.65;;;7.00;;
18887;SDS011;9576;47.792;9.628;2023-06-04T07:41:11;18.42;;;7.13;;
18887;SDS011;9576;47.792;9.628;2023-06-04T07:44:13;13.18;;;6.72;;
18887;SDS011;9576;47.792;9.628;2023-06-04T07:47:15;13.60;;;6.38;;
18887;SDS011;9576;47.792;9.628;2023-06-04T07:50:17;13.85;;;6.03;;
18887;SDS011;9576;47.792;9.628;2023-06-04T07:53:19;10.70;;;6.13;;
18887;SDS011;9576;47.792;9.628;2023-06-04T07:56:22;11.05;;;6.30;;
18887;SDS011;9576;47.792;9.628;2023-06-04T07:59:25;11.20;;;6.95;;
18887;SDS011;9576;47.792;9.628;2023-06-04T08:02:29;9.82;;;6.60;;
18887;SDS011;9576;47.792;9.628;2023-06-04T08:05:31;15.63;;;7.05;;
18887;SDS011;9576;47.792;9.628;2023-06-04T08:08:33;10.48;;;6.00;;
18887;SDS011;9576;47.792;9.628;2023-06-04T08:11:37;12.48;;;5.72;;
18887;SDS011;9576;47.792;9.628;2023-06-04T08:14:40;12.15;;;6.43;;
18887;SDS011;9576;47.792;9.628;2023-06-04T08:17:42;11.45;;;6.80;;
18887;SDS011;9576;47.792;9.628;2023-06-04T08:20:43;13.52;;;5.43;;
18887;SDS011;9576;47.792;9.628;2023-06-04T08:23:45;14.40;;;6.90;;
18887;SDS011;9576;47.792;9.628;2023-06-04T08:26:49;16.35;;;5.95;;
18887;SDS011;9576;47.792;9.628;2023-06-04T08:29:51;13.13;;;5.85;;
18887;SDS011;9576;47.792;9.628;2023-06-04T08:32:53;18.80;;;5.72;;
18887;SDS011;9576;47.792;9.628;2023-06-04T08:35:55;11.82;;;6.80;;
18887;SDS011;9576;47.792;9.628;2023-06-04T08:38:57;12.55;;;5.10;;
18887;SDS011;9576;47.792;9.628;2023-06-04T08:42:01;23.40;;;5.22;;
18887;SDS011;9576;47.792;9.628;2023-06-04T08:45:08;10.35;;;5.38;;
18887;SDS011;9576;47.792;9.628;2023-06-04T08:48:12;7.63;;;4.40;;
18887;SDS011;9576;47.792;9.628;2023-06-04T08:51:15;7.28;;;4.90;;
18887;SDS011;9576;47.792;9.628;2023-06-04T08:54:17;12.13;;;4.65;;
18887;SDS011;9576;47.792;9.628;2023-06-04T08:57:21;8.98;;;5.25;;
18887;SDS011;9576;47.792;9.628;2023-06-04T09:00:23;12.23;;;4.50;;
18887;SDS011;9576;47.792;9.628;2023-06-04T09:03:25;13.55;;;4.65;;
18887;SDS011;9576;47.792;9.628;2023-06-04T09:06:27;7.32;;;4.60;;
18887;SDS011;9576;47.792;9.628;2023-06-04T09:09:31;12.90;;;4.63;;
18887;SDS011;9576;47.792;9.628;2023-06-04T09:12:38;9.02;;;4.93;;
18887;SDS011;9576;47.792;9.628;2023-06-04T09:15:43;9.95;;;5.18;;
18887;SDS011;9576;47.792;9.628;2023-06-04T09:18:45;10.55;;;3.72;;
18887;SDS011;9576;47.792;9.628;2023-06-04T09:21:51;6.75;;;4.15;;
18887;SDS011;9576;47.792;9.628;2023-06-04T09:24:54;9.20;;;4.72;;
18887;SDS011;9576;47.792;9.628;2023-06-04T09:28:05;7.82;;;4.25;;
18887;SDS011;9576;47.792;9.628;2023-06-04T09:31:08;7.85;;;4.53;;
18887;SDS011;9576;47.792;9.628;2023-06-04T09:34:10;9.48;;;4.97;;
18887;SDS011;9576;47.792;9.628;2023-06-04T09:37:13;10.30;;;5.13;;
18887;SDS011;9576;47.792;9.628;2023-06-04T09:43:23;12.52;;;5.95;;
18887;SDS011;9576;47.792;9.628;2023-06-04T09:46:25;15.00;;;4.65;;
18887;SDS011;9576;47.792;9.628;2023-06-04T09:49:27;9.90;;;4.45;;
18887;SDS011;9576;47.792;9.628;2023-06-04T09:52:32;9.70;;;4.32;;
18887;SDS011;9576;47.792;9.628;2023-06-04T09:55:35;7.90;;;5.07;;
18887;SDS011;9576;47.792;9.628;2023-06-04T09:58:38;9.73;;;4.30;;
18887;SDS011;9576;47.792;9.628;2023-06-04T10:01:41;12.27;;;4.57;;
18887;SDS011;9576;47.792;9.628;2023-06-04T10:04:44;18.45;;;4.85;;
18887;SDS011;9576;47.792;9.628;2023-06-04T10:07:53;8.95;;;4.80;;
18887;SDS011;9576;47.792;9.628;2023-06-04T10:10:58;10.45;;;4.13;;
18887;SDS011;9576;47.792;9.628;2023-06-04T10:14:04;11.93;;;4.70;;
18887;SDS011;9576;47.792;9.628;2023-06-04T10:17:11;11.27;;;5.05;;
18887;SDS011;9576;47.792;9.628;2023-06-04T10:20:14;7.72;;;4.50;;
18887;SDS011;9576;47.792;9.628;2023-06-04T10:23:20;10.85;;;4.70;;
18887;SDS011;9576;47.792;9.628;2023-06-04T10:26:22;7.95;;;4.55;;
18887;SDS011;9576;47.792;9.628;2023-06-04T10:29:26;14.93;;;4.43;;
18887;SDS011;9576;47.792;9.628;2023-06-04T10:32:29;13.75;;;5.10;;
18887;SDS011;9576;47.792;9.628;2023-06-04T10:35:31;7.68;;;4.55;;
18887;SDS011;9576;47.792;9.628;2023-06-04T10:38:33;6.65;;;4.28;;
18887;SDS011;9576;47.792;9.628;2023-06-04T10:41:56;10.95;;;4.88;;
18887;SDS011;9576;47.792;9.628;2023-06-04T10:45:00;7.43;;;4.63;;
18887;SDS011;9576;47.792;9.628;2023-06-04T10:48:03;9.18;;;4.40;;
18887;SDS011;9576;47.792;9.628;2023-06-04T10:51:06;6.93;;;3.95;;
18887;SDS011;9576;47.792;9.628;2023-06-04T10:54:07;10.65;;;4.28;;
18887;SDS011;9576;47.792;9.628;2023-06-04T10:57:10;19.17;;;4.90;;
18887;SDS011;9576;47.792;9.628;2023-06-04T11:00:14;12.30;;;5.10;;
18887;SDS011;9576;47.792;9.628;2023-06-04T11:03:16;13.65;;;4.70;;
18887;SDS011;9576;47.792;9.628;2023-06-04T11:06:19;12.73;;;4.40;;
18887;SDS011;9576;47.792;9.628;2023-06-04T11:09:21;10.52;;;4.65;;
18887;SDS011;9576;47.792;9.628;2023-06-04T11:12:23;8.50;;;4.55;;
18887;SDS011;9576;47.792;9.628;2023-06-04T11:15:36;6.30;;;3.75;;
18887;SDS011;9576;47.792;9.628;2023-06-04T11:18:39;14.57;;;4.72;;
18887;SDS011;9576;47.792;9.628;2023-06-04T11:21:41;12.63;;;4.47;;
18887;SDS011;9576;47.792;9.628;2023-06-04T11:24:42;16.48;;;4.63;;
18887;SDS011;9576;47.792;9.628;2023-06-04T11:27:45;6.75;;;4.85;;
18887;SDS011;9576;47.792;9.628;2023-06-04T11:30:59;8.18;;;5.43;;
18887;SDS011;9576;47.792;9.628;2023-06-04T11:34:02;19.00;;;4.72;;
18887;SDS011;9576;47.792;9.628;2023-06-04T11:37:08;12.13;;;4.30;;
18887;SDS011;9576;47.792;9.628;2023-06-04T11:40:19;11.82;;;4.90;;
18887;SDS011;9576;47.792;9.628;2023-06-04T11:43:21;8.77;;;4.65;;
18887;SDS011;9576;47.792;9.628;2023-06-04T11:46:25;11.13;;;4.88;;
18887;SDS011;9576;47.792;9.628;2023-06-04T11:49:28;7.43;;;4.75;;
18887;SDS011;9576;47.792;9.628;2023-06-04T11:52:29;8.13;;;4.00;;
18887;SDS011;9576;47.792;9.628;2023-06-04T11:55:32;13.00;;;4.90;;
18887;SDS011;9576;47.792;9.628;2023-06-04T11:58:34;12.75;;;5.78;;
18887;SDS011;9576;47.792;9.628;2023-06-04T12:01:38;10.38;;;5.07;;
18887;SDS011;9576;47.792;9.628;2023-06-04T12:04:40;7.65;;;4.90;;
18887;SDS011;9576;47.792;9.628;2023-06-04T12:07:42;20.55;;;4.40;;
18887;SDS011;9576;47.792;9.628;2023-06-04T12:10:44;17.02;;;4.70;;
18887;SDS011;9576;47.792;9.628;2023-06-04T12:13:46;8.85;;;4.22;;
18887;SDS011;9576;47.792;9.628;2023-06-04T12:16:55;11.20;;;4.65;;
18887;SDS011;9576;47.792;9.628;2023-06-04T12:19:57;13.50;;;4.47;;
18887;SDS011;9576;47.792;9.628;2023-06-04T12:22:59;7.03;;;4.43;;
18887;SDS011;9576;47.792;9.628;2023-06-04T12:26:01;7.95;;;4.60;;
18887;SDS011;9576;47.792;9.628;2023-06-04T12:29:09;9.63;;;4.97;;
18887;SDS011;9576;47.792;9.628;2023-06-04T12:32:13;10.40;;;4.53;;
18887;SDS011;9576;47.792;9.628;2023-06-04T12:35:15;11.70;;;4.23;;
18887;SDS011;9576;47.792;9.628;2023-06-04T12:38:17;10.07;;;4.88;;
18887;SDS011;9576;47.792;9.628;2023-06-04T12:41:19;9.70;;;4.28;;
18887;SDS011;9576;47.792;9.628;2023-06-04T12:44:21;12.38;;;4.35;;
18887;SDS011;9576;47.792;9.628;2023-06-04T12:47:24;10.00;;;4.30;;
18887;SDS011;9576;47.792;9.628;2023-06-04T12:50:26;10.95;;;4.47;;
18887;SDS011;9576;47.792;9.628;2023-06-04T12:53:28;10.77;;;4.72;;
18887;SDS011;9576;47.792;9.628;2023-06-04T12:56:30;9.23;;;4.88;;
18887;SDS011;9576;47.792;9.628;2023-06-04T12:59:32;8.55;;;4.55;;
18887;SDS011;9576;47.792;9.628;2023-06-04T13:02:35;6.82;;;4.10;;
18887;SDS011;9576;47.792;9.628;2023-06-04T13:05:37;9.40;;;4.57;;
18887;SDS011;9576;47.792;9.628;2023-06-04T13:08:39;8.93;;;4.82;;
18887;SDS011;9576;47.792;9.628;2023-06-04T13:11:41;21.52;;;5.32;;
18887;SDS011;9576;47.792;9.628;2023-06-04T13:14:44;20.40;;;5.13;;
18887;SDS011;9576;47.792;9.628;2023-06-04T13:17:47;30.33;;;5.38;;
18887;SDS011;9576;47.792;9.628;2023-06-04T13:20:49;16.92;;;5.07;;
18887;SDS011;9576;47.792;9.628;2023-06-04T13:23:51;12.48;;;4.22;;
18887;SDS011;9576;47.792;9.628;2023-06-04T13:26:53;9.23;;;5.13;;
18887;SDS011;9576;47.792;9.628;2023-06-04T13:29:56;8.85;;;4.88;;
18887;SDS011;9576;47.792;9.628;2023-06-04T13:32:59;10.07;;;4.50;;
18887;SDS011;9576;47.792;9.628;2023-06-04T13:36:02;13.65;;;4.75;;
18887;SDS011;9576;47.792;9.628;2023-06-04T13:39:04;9.02;;;5.20;;
18887;SDS011;9576;47.792;9.628;2023-06-04T13:42:07;22.35;;;5.40;;
18887;SDS011;9576;47.792;9.628;2023-06-04T13:45:09;8.38;;;4.50;;
18887;SDS011;9576;47.792;9.628;2023-06-04T13:48:12;8.18;;;5.10;;
18887;SDS011;9576;47.792;9.628;2023-06-04T13:51:16;10.13;;;4.38;;
18887;SDS011;9576;47.792;9.628;2023-06-04T13:54:17;11.90;;;5.35;;
18887;SDS011;9576;47.792;9.628;2023-06-04T13:57:19;10.02;;;4.68;;
18887;SDS011;9576;47.792;9.628;2023-06-04T14:00:21;13.88;;;4.88;;
18887;SDS011;9576;47.792;9.628;2023-06-04T14:03:25;10.98;;;5.15;;
18887;SDS011;9576;47.792;9.628;2023-06-04T14:06:27;8.75;;;5.15;;
18887;SDS011;9576;47.792;9.628;2023-06-04T14:09:29;10.52;;;5.47;;
18887;SDS011;9576;47.792;9.628;2023-06-04T14:12:31;7.55;;;4.70;;
18887;SDS011;9576;47.792;9.628;2023-06-04T14:15:32;10.15;;;5.32;;
18887;SDS011;9576;47.792;9.628;2023-06-04T14:18:36;22.45;;;4.95;;
18887;SDS011;9576;47.792;9.628;2023-06-04T14:21:38;9.15;;;4.97;;
18887;SDS011;9576;47.792;9.628;2023-06-04T14:24:41;16.50;;;5.72;;
18887;SDS011;9576;47.792;9.628;2023-06-04T14:27:43;7.90;;;4.82;;
18887;SDS011;9576;47.792;9.628;2023-06-04T14:30:44;17.35;;;5.25;;
18887;SDS011;9576;47.792;9.628;2023-06-04T14:33:48;7.32;;;5.03;;
18887;SDS011;9576;47.792;9.628;2023-06-04T14:36:50;9.05;;;5.40;;
18887;SDS011;9576;47.792;9.628;2023-06-04T14:39:52;15.10;;;5.63;;
18887;SDS011;9576;47.792;9.628;2023-06-04T14:42:53;7.70;;;4.60;;
18887;SDS011;9576;47.792;9.628;2023-06-04T14:45:55;11.60;;;5.13;;
18887;SDS011;9576;47.792;9.628;2023-06-04T14:48:59;8.18;;;4.82;;
18887;SDS011;9576;47.792;9.628;2023-06-04T14:52:01;9.55;;;5.13;;
18887;SDS011;9576;47.792;9.628;2023-06-04T14:55:03;7.18;;;4.65;;
18887;SDS011;9576;47.792;9.628;2023-06-04T14:58:06;13.85;;;6.25;;
18887;SDS011;9576;47.792;9.628;2023-06-04T15:01:08;7.00;;;4.75;;
18887;SDS011;9576;47.792;9.628;2023-06-04T15:04:11;27.77;;;5.43;;
18887;SDS011;9576;47.792;9.628;2023-06-04T15:07:13;9.00;;;5.07;;
18887;SDS011;9576;47.792;9.628;2023-06-04T15:10:15;12.10;;;4.80;;
18887;SDS011;9576;47.792;9.628;2023-06-04T15:13:17;13.30;;;5.45;;
18887;SDS011;9576;47.792;9.628;2023-06-04T15:16:19;11.95;;;5.00;;
18887;SDS011;9576;47.792;9.628;2023-06-04T15:19:22;11.68;;;4.95;;
18887;SDS011;9576;47.792;9.628;2023-06-04T15:22:24;20.15;;;5.05;;
18887;SDS011;9576;47.792;9.628;2023-06-04T15:25:27;15.18;;;5.03;;
18887;SDS011;9576;47.792;9.628;2023-06-04T15:28:29;12.15;;;5.25;;
18887;SDS011;9576;47.792;9.628;2023-06-04T15:31:31;29.75;;;5.82;;
18887;SDS011;9576;47.792;9.628;2023-06-04T15:34:34;7.35;;;4.80;;
18887;SDS011;9576;47.792;9.628;2023-06-04T15:37:36;21.30;;;4.38;;
18887;SDS011;9576;47.792;9.628;2023-06-04T15:40:38;12.00;;;5.10;;
18887;SDS011;9576;47.792;9.628;2023-06-04T15:43:40;8.82;;;5.28;;
18887;SDS011;9576;47.792;9.628;2023-06-04T15:46:42;18.10;;;4.82;;
18887;SDS011;9576;47.792;9.628;2023-06-04T15:49:45;14.60;;;4.55;;
18887;SDS011;9576;47.792;9.628;2023-06-04T15:52:47;8.20;;;4.73;;
18887;SDS011;9576;47.792;9.628;2023-06-04T15:55:49;10.35;;;4.78;;
18887;SDS011;9576;47.792;9.628;2023-06-04T15:58:51;18.30;;;4.28;;
18887;SDS011;9576;47.792;9.628;2023-06-04T16:01:53;6.53;;;4.57;;
18887;SDS011;9576;47.792;9.628;2023-06-04T16:04:56;14.15;;;4.95;;
18887;SDS011;9576;47.792;9.628;2023-06-04T16:07:58;7.20;;;4.35;;
18887;SDS011;9576;47.792;9.628;2023-06-04T16:11:01;10.15;;;5.63;;
18887;SDS011;9576;47.792;9.628;2023-06-04T16:14:03;9.18;;;5.18;;
18887;SDS011;9576;47.792;9.628;2023-06-04T16:17:06;15.30;;;4.75;;
18887;SDS011;9576;47.792;9.628;2023-06-04T16:20:10;9.88;;;5.18;;
18887;SDS011;9576;47.792;9.628;2023-06-04T16:23:13;14.48;;;4.47;;
18887;SDS011;9576;47.792;9.628;2023-06-04T16:26:15;8.73;;;4.93;;
18887;SDS011;9576;47.792;9.628;2023-06-04T16:29:18;9.75;;;4.82;;
18887;SDS011;9576;47.792;9.628;2023-06-04T16:32:20;6.53;;;4.03;;
18887;SDS011;9576;47.792;9.628;2023-06-04T16:35:25;10.00;;;4.50;;
18887;SDS011;9576;47.792;9.628;2023-06-04T16:38:27;10.18;;;4.90;;
18887;SDS011;9576;47.792;9.628;2023-06-04T16:41:30;9.27;;;4.80;;
18887;SDS011;9576;47.792;9.628;2023-06-04T16:44:33;6.60;;;4.00;;
18887;SDS011;9576;47.792;9.628;2023-06-04T16:47:35;5.78;;;3.80;;
18887;SDS011;9576;47.792;9.628;2023-06-04T16:50:38;11.43;;;4.72;;
18887;SDS011;9576;47.792;9.628;2023-06-04T16:53:40;16.30;;;5.17;;
18887;SDS011;9576;47.792;9.628;2023-06-04T16:56:42;9.10;;;4.50;;
18887;SDS011;9576;47.792;9.628;2023-06-04T16:59:44;13.32;;;3.97;;
18887;SDS011;9576;47.792;9.628;2023-06-04T17:02:47;9.88;;;4.55;;
18887;SDS011;9576;47.792;9.628;2023-06-04T17:05:50;12.85;;;4.28;;
18887;SDS011;9576;47.792;9.628;2023-06-04T17:08:52;24.40;;;5.55;;
18887;SDS011;9576;47.792;9.628;2023-06-04T17:11:54;10.40;;;5.28;;
18887;SDS011;9576;47.792;9.628;2023-06-04T17:14:56;12.63;;;4.43;;
18887;SDS011;9576;47.792;9.628;2023-06-04T17:17:58;8.60;;;4.53;;
18887;SDS011;9576;47.792;9.628;2023-06-04T17:21:02;8.50;;;4.60;;
18887;SDS011;9576;47.792;9.628;2023-06-04T17:24:04;8.80;;;4.68;;
18887;SDS011;9576;47.792;9.628;2023-06-04T17:27:06;12.70;;;4.72;;
18887;SDS011;9576;47.792;9.628;2023-06-04T17:30:09;15.40;;;4.97;;
18887;SDS011;9576;47.792;9.628;2023-06-04T17:33:12;8.38;;;4.68;;
18887;SDS011;9576;47.792;9.628;2023-06-04T17:36:15;23.35;;;4.93;;
18887;SDS011;9576;47.792;9.628;2023-06-04T17:39:19;7.78;;;4.20;;
18887;SDS011;9576;47.792;9.628;2023-06-04T17:42:21;14.48;;;4.88;;
18887;SDS011;9576;47.792;9.628;2023-06-04T17:45:23;10.45;;;4.82;;
18887;SDS011;9576;47.792;9.628;2023-06-04T17:48:25;11.13;;;4.75;;
18887;SDS011;9576;47.792;9.628;2023-06-04T17:51:28;7.03;;;4.32;;
18887;SDS011;9576;47.792;9.628;2023-06-04T17:54:30;15.48;;;6.07;;
18887;SDS011;9576;47.792;9.628;2023-06-04T17:57:32;7.15;;;4.72;;
18887;SDS011;9576;47.792;9.628;2023-06-04T18:00:36;19.92;;;5.63;;
18887;SDS011;9576;47.792;9.628;2023-06-04T18:03:38;9.20;;;4.57;;
18887;SDS011;9576;47.792;9.628;2023-06-04T18:06:41;11.60;;;4.70;;
18887;SDS011;9576;47.792;9.628;2023-06-04T18:09:43;10.50;;;4.88;;
18887;SDS011;9576;47.792;9.628;2023-06-04T18:12:45;17.00;;;4.57;;
18887;SDS011;9576;47.792;9.628;2023-06-04T18:15:47;8.25;;;4.47;;
18887;SDS011;9576;47.792;9.628;2023-06-04T18:18:49;12.27;;;4.95;;
18887;SDS011;9576;47.792;9.628;2023-06-04T18:21:52;10.43;;;5.32;;
18887;SDS011;9576;47.792;9.628;2023-06-04T18:24:54;8.43;;;4.80;;
18887;SDS011;9576;47.792;9.628;2023-06-04T18:27:56;9.82;;;4.72;;
18887;SDS011;9576;47.792;9.628;2023-06-04T18:30:58;15.82;;;4.90;;